createdAt,value
2023-12-05T00:02:23.070Z,100583.50
2023-12-05T00:04:50.077Z,100574.03
2023-12-05T00:07:20.604Z,100572.28
2023-12-05T00:09:48.910Z,100582.63
2023-12-05T00:12:19.014Z,100579.16
2023-12-05T00:14:46.860Z,100588.56
2023-12-05T00:17:13.966Z,100579.97
2023-12-05T00:19:40.875Z,100571.31
2023-12-05T00:22:10.916Z,100571.38
2023-12-05T00:24:37.901Z,100574.81
2023-12-05T00:27:05.306Z,100573.13
2023-12-05T00:29:32.154Z,100572.28
2023-12-05T00:31:59.227Z,100580.06
2023-12-05T00:34:27.280Z,100583.50
2023-12-05T00:36:54.518Z,100577.41
2023-12-05T00:39:21.907Z,100570.53
2023-12-05T00:41:54.594Z,100580.03
2023-12-05T00:44:21.596Z,100587.72
2023-12-05T00:46:48.841Z,100576.53
2023-12-05T00:49:18.715Z,100582.59
2023-12-05T00:51:47.326Z,100577.44
2023-12-05T00:54:15.866Z,100571.44
2023-12-05T00:56:43.051Z,100574.91
2023-12-05T00:59:13.261Z,100576.59
2023-12-05T01:01:40.358Z,100580.88
2023-12-05T01:04:07.838Z,100579.13
2023-12-05T01:06:35.114Z,100571.31
2023-12-05T01:09:07.706Z,100579.03
2023-12-05T01:11:37.960Z,100571.31
2023-12-05T01:14:06.989Z,100567.88
2023-12-05T01:16:34.336Z,100575.59
2023-12-05T01:19:01.903Z,100580.00
2023-12-05T01:21:29.773Z,100570.53
2023-12-05T01:23:56.652Z,100572.28
2023-12-05T01:26:27.136Z,100571.44
2023-12-05T01:28:56.255Z,100567.97
2023-12-05T01:31:24.087Z,100571.38
2023-12-05T01:33:51.229Z,100562.72
2023-12-05T01:36:21.305Z,100549.88
2023-12-05T01:38:48.156Z,100547.25
2023-12-05T01:41:15.349Z,100538.63
2023-12-05T01:43:44.941Z,100527.41
2023-12-05T01:46:12.835Z,100523.97
2023-12-05T01:48:41.736Z,100517.09
2023-12-05T01:51:10.446Z,100508.50
2023-12-05T01:53:40.434Z,100505.97
2023-12-05T01:56:09.741Z,100510.22
2023-12-05T01:58:38.516Z,100498.06
2023-12-05T02:01:09.309Z,100491.22
2023-12-05T02:03:37.242Z,100486.94
2023-12-05T02:06:05.268Z,100490.34
2023-12-05T02:08:33.542Z,100481.69
2023-12-05T02:11:00.971Z,100486.88
2023-12-05T02:13:27.834Z,100481.75
2023-12-05T02:16:04.828Z,100473.16
2023-12-05T02:18:40.718Z,100460.19
2023-12-05T02:21:20.992Z,100451.63
2023-12-05T02:24:11.747Z,100442.19
2023-12-05T02:26:58.863Z,100435.19
2023-12-05T02:29:28.344Z,100429.22
2023-12-05T02:31:56.309Z,100422.31
2023-12-05T02:34:23.365Z,100417.06
2023-12-05T02:37:05.303Z,100415.34
2023-12-05T02:39:42.572Z,100415.38
2023-12-05T02:42:13.169Z,100415.34
2023-12-05T02:44:51.359Z,100418.78
2023-12-05T02:47:23.421Z,100425.59
2023-12-05T02:49:51.544Z,100425.66
2023-12-05T02:52:18.611Z,100427.31
2023-12-05T02:54:45.523Z,100432.41
2023-12-05T02:57:12.841Z,100431.63
2023-12-05T02:59:39.655Z,100433.28
2023-12-05T03:02:06.766Z,100423.81
2023-12-05T03:04:33.729Z,100432.41
2023-12-05T03:07:01.066Z,100424.66
2023-12-05T03:09:28.262Z,100413.44
2023-12-05T03:11:55.311Z,100417.72
2023-12-05T03:14:22.576Z,100416.78
2023-12-05T03:16:54.267Z,100416.91
2023-12-05T03:19:25.867Z,100420.34
2023-12-05T03:21:57.192Z,100411.72
2023-12-05T03:24:27.029Z,100411.72
2023-12-05T03:26:55.442Z,100403.97
2023-12-05T03:29:22.275Z,100398.81
2023-12-05T03:31:49.499Z,100403.09
2023-12-05T03:34:19.447Z,100401.38
2023-12-05T03:36:46.650Z,100393.69
2023-12-05T03:39:13.573Z,100394.50
2023-12-05T03:41:41.074Z,100385.13
2023-12-05T03:44:10.471Z,100392.91
2023-12-05T03:46:37.828Z,100385.13
2023-12-05T03:49:04.808Z,100396.25
2023-12-05T03:51:31.954Z,100391.13
2023-12-05T03:53:58.797Z,100389.31
2023-12-05T03:56:26.930Z,100384.28
2023-12-05T03:58:53.915Z,100377.31
2023-12-05T04:01:20.982Z,100381.59
2023-12-05T04:03:48.003Z,100376.47
2023-12-05T04:06:22.950Z,100372.06
2023-12-05T04:08:50.915Z,100365.25
2023-12-05T04:11:30.417Z,100365.31
2023-12-05T04:13:57.388Z,100362.72
2023-12-05T04:16:25.145Z,100360.13
2023-12-05T04:18:52.663Z,100358.41
2023-12-05T04:21:22.441Z,100360.13
2023-12-05T04:23:50.473Z,100357.50
2023-12-05T04:26:22.124Z,100351.47
2023-12-05T04:28:48.995Z,100353.22
2023-12-05T04:31:16.584Z,100353.19
2023-12-05T04:33:46.690Z,100358.34
2023-12-05T04:36:17.189Z,100357.47
2023-12-05T04:38:46.906Z,100359.16
2023-12-05T04:41:18.407Z,100357.56
2023-12-05T04:43:46.868Z,100356.66
2023-12-05T04:46:17.006Z,100357.53
2023-12-05T04:48:45.071Z,100361.66
2023-12-05T04:51:12.554Z,100364.28
2023-12-05T04:53:42.295Z,100363.41
2023-12-05T04:56:10.081Z,100353.91
2023-12-05T04:58:37.176Z,100359.94
2023-12-05T05:01:08.019Z,100354.75
2023-12-05T05:03:34.973Z,100360.81
2023-12-05T05:06:02.284Z,100357.34
2023-12-05T05:08:29.144Z,100352.00
2023-12-05T05:10:56.254Z,100356.38
2023-12-05T05:13:23.119Z,100360.81
2023-12-05T05:15:50.182Z,100362.50
2023-12-05T05:18:17.409Z,100369.41
2023-12-05T05:20:47.600Z,100361.63
2023-12-05T05:23:14.390Z,100357.31
2023-12-05T05:25:42.508Z,100358.19
2023-12-05T05:28:15.117Z,100357.31
2023-12-05T05:30:44.077Z,100366.75
2023-12-05T05:33:11.059Z,100358.13
2023-12-05T05:35:38.115Z,100354.63
2023-12-05T05:38:05.117Z,100346.78
2023-12-05T05:40:34.791Z,100352.75
2023-12-05T05:43:01.944Z,100356.25
2023-12-05T05:45:29.105Z,100345.84
2023-12-05T05:47:59.073Z,100355.28
2023-12-05T05:50:31.463Z,100349.34
2023-12-05T05:52:58.281Z,100358.78
2023-12-05T05:55:27.367Z,100358.81
2023-12-05T05:57:57.260Z,100354.47
2023-12-05T06:00:25.702Z,100354.44
2023-12-05T06:02:55.432Z,100352.69
2023-12-05T06:05:22.638Z,100356.16
2023-12-05T06:07:49.512Z,100350.09
2023-12-05T06:10:17.583Z,100350.84
2023-12-05T06:12:44.360Z,100355.16
2023-12-05T06:15:11.716Z,100355.16
2023-12-05T06:17:38.518Z,100350.03
2023-12-05T06:20:06.983Z,100356.94
2023-12-05T06:22:33.778Z,100360.38
2023-12-05T06:25:01.209Z,100366.44
2023-12-05T06:27:31.072Z,100373.34
2023-12-05T06:30:03.549Z,100364.75
2023-12-05T06:32:36.667Z,100365.53
2023-12-05T06:35:03.934Z,100367.31
2023-12-05T06:37:30.743Z,100362.03
2023-12-05T06:39:58.285Z,100366.38
2023-12-05T06:42:26.173Z,100373.22
2023-12-05T06:44:53.653Z,100381.00
2023-12-05T06:47:20.499Z,100371.50
2023-12-05T06:49:48.414Z,100373.97
2023-12-05T06:52:16.454Z,100367.06
2023-12-05T06:54:46.937Z,100361.09
2023-12-05T06:57:16.424Z,100352.44
2023-12-05T06:59:43.633Z,100360.22
2023-12-05T07:02:13.431Z,100363.69
2023-12-05T07:04:40.658Z,100364.50
2023-12-05T07:07:09.026Z,100365.34
2023-12-05T07:09:36.444Z,100369.53
2023-12-05T07:12:03.257Z,100368.59
2023-12-05T07:14:30.350Z,100369.44
2023-12-05T07:17:04.554Z,100372.22
2023-12-05T07:19:31.688Z,100378.16
2023-12-05T07:22:01.549Z,100379.06
2023-12-05T07:24:28.727Z,100379.81
2023-12-05T07:27:00.651Z,100388.59
2023-12-05T07:29:28.341Z,100392.91
2023-12-05T07:31:56.298Z,100397.13
2023-12-05T07:34:23.473Z,100392.81
2023-12-05T07:36:50.341Z,100391.84
2023-12-05T07:39:17.555Z,100384.88
2023-12-05T07:41:44.515Z,100394.28
2023-12-05T07:44:11.717Z,100397.78
2023-12-05T07:46:43.372Z,100395.94
2023-12-05T07:49:10.866Z,100393.34
2023-12-05T07:51:38.699Z,100391.69
2023-12-05T07:54:06.575Z,100395.97
2023-12-05T07:56:33.661Z,100386.59
2023-12-05T07:59:03.327Z,100385.69
2023-12-05T08:01:33.667Z,100376.06
2023-12-05T08:04:04.016Z,100369.16
2023-12-05T08:06:31.085Z,100373.47
2023-12-05T08:08:58.357Z,100375.22
2023-12-05T08:11:28.030Z,100372.63
2023-12-05T08:13:55.375Z,100372.69
2023-12-05T08:16:22.448Z,100370.97
2023-12-05T08:18:52.665Z,100375.13
2023-12-05T08:21:19.765Z,100376.81
2023-12-05T08:23:46.967Z,100375.19
2023-12-05T08:26:16.997Z,100379.34
2023-12-05T08:28:46.988Z,100380.13
2023-12-05T08:31:13.940Z,100382.63
2023-12-05T08:33:41.251Z,100381.81
2023-12-05T08:36:08.492Z,100390.41
2023-12-05T08:38:36.945Z,100389.53
2023-12-05T08:41:04.351Z,100386.97
2023-12-05T08:43:31.474Z,100387.97
2023-12-05T08:46:00.001Z,100383.53
2023-12-05T08:48:27.268Z,100390.44
2023-12-05T08:50:54.466Z,100386.00
2023-12-05T08:53:21.903Z,100381.56
2023-12-05T08:55:48.677Z,100383.28
2023-12-05T08:58:17.257Z,100372.00
2023-12-05T09:00:45.177Z,100380.63
2023-12-05T09:03:15.615Z,100383.13
2023-12-05T09:05:42.618Z,100376.19
2023-12-05T09:08:09.957Z,100367.69
2023-12-05T09:10:42.732Z,100364.28
2023-12-05T09:13:09.848Z,100362.53
2023-12-05T09:15:36.743Z,100367.59
2023-12-05T09:18:04.952Z,100377.94
2023-12-05T09:20:32.287Z,100378.13
2023-12-05T09:23:01.748Z,100377.97
2023-12-05T09:25:29.097Z,100375.31
2023-12-05T09:27:56.266Z,100383.09
2023-12-05T09:30:23.572Z,100367.72
2023-12-05T09:32:50.883Z,100365.16
2023-12-05T09:35:20.867Z,100370.28
2023-12-05T09:37:54.736Z,100359.03
2023-12-05T09:40:24.207Z,100361.63
2023-12-05T09:42:59.512Z,100356.47
2023-12-05T09:45:34.919Z,100357.28
2023-12-05T09:48:05.232Z,100346.03
2023-12-05T09:50:35.932Z,100342.50
2023-12-05T09:53:04.099Z,100354.56
2023-12-05T09:55:31.115Z,100339.03
2023-12-05T09:57:58.689Z,100339.94
2023-12-05T10:00:26.605Z,100347.69
2023-12-05T10:02:56.065Z,100338.97
2023-12-05T10:05:25.370Z,100331.28
2023-12-05T10:07:56.632Z,100326.94
2023-12-05T10:10:25.347Z,100325.22
2023-12-05T10:12:53.207Z,100326.97
2023-12-05T10:15:23.862Z,100318.25
2023-12-05T10:17:51.448Z,100311.28
2023-12-05T10:20:18.944Z,100305.25
2023-12-05T10:22:46.196Z,100302.47
2023-12-05T10:25:16.104Z,100295.47
2023-12-05T10:27:43.404Z,100293.72
2023-12-05T10:30:10.787Z,100288.44
2023-12-05T10:32:38.400Z,100292.69
2023-12-05T10:35:06.081Z,100289.88
2023-12-05T10:37:33.471Z,100290.50
2023-12-05T10:40:00.891Z,100285.31
2023-12-05T10:42:31.473Z,100283.50
2023-12-05T10:44:58.669Z,100278.22
2023-12-05T10:47:29.373Z,100272.94
2023-12-05T10:49:56.599Z,100271.88
2023-12-05T10:52:26.062Z,100267.56
2023-12-05T10:54:58.048Z,100270.28
2023-12-05T10:57:32.146Z,100269.41
2023-12-05T11:00:00.047Z,100258.72
2023-12-05T11:02:28.424Z,100255.03
2023-12-05T11:04:59.379Z,100262.78
2023-12-05T11:07:26.445Z,100259.50
2023-12-05T11:09:53.346Z,100266.56
2023-12-05T11:12:25.330Z,100268.19
2023-12-05T11:14:56.564Z,100268.31
2023-12-05T11:17:35.517Z,100269.22
2023-12-05T11:20:17.191Z,100269.97
2023-12-05T11:23:03.657Z,100262.09
2023-12-05T11:25:30.494Z,100255.88
2023-12-05T11:28:34.413Z,100254.94
2023-12-05T11:31:33.237Z,100261.06
2023-12-05T11:34:19.302Z,100260.25
2023-12-05T11:37:20.691Z,100262.09
2023-12-05T11:39:55.236Z,100250.91
2023-12-05T11:42:22.787Z,100260.97
2023-12-05T11:44:52.887Z,100252.97
2023-12-05T11:47:30.297Z,100255.63
2023-12-05T11:50:00.781Z,100252.38
2023-12-05T11:52:29.389Z,100257.63
2023-12-05T11:54:58.539Z,100254.13
2023-12-05T11:57:27.019Z,100246.34
2023-12-05T11:59:57.329Z,100247.91
2023-12-05T12:02:33.347Z,100252.34
2023-12-05T12:05:01.949Z,100251.31
2023-12-05T12:07:29.269Z,100252.94
2023-12-05T12:09:57.356Z,100255.63
2023-12-05T12:12:25.465Z,100255.44
2023-12-05T12:14:54.460Z,100256.19
2023-12-05T12:17:24.366Z,100253.66
2023-12-05T12:19:52.061Z,100256.84
2023-12-05T12:22:21.415Z,100250.75
2023-12-05T12:24:48.592Z,100251.69
2023-12-05T12:27:15.489Z,100250.78
2023-12-05T12:29:59.497Z,100248.13
2023-12-05T12:32:26.735Z,100238.66
2023-12-05T12:34:55.195Z,100233.75
2023-12-05T12:39:53.054Z,100240.75
2023-12-05T12:42:20.055Z,100245.06
2023-12-05T12:44:47.898Z,100242.59
2023-12-05T12:47:15.554Z,100238.19
2023-12-05T12:49:43.750Z,100237.22
2023-12-05T12:52:11.299Z,100240.63
2023-12-05T12:54:38.935Z,100238.06
2023-12-05T12:57:08.226Z,100239.81
2023-12-05T12:59:35.416Z,100234.63
2023-12-05T13:02:04.090Z,100226.91
2023-12-05T13:04:37.889Z,100233.91
2023-12-05T13:07:05.797Z,100237.47
2023-12-05T13:09:33.280Z,100223.72
2023-12-05T13:12:00.546Z,100231.63
2023-12-05T13:14:27.965Z,100229.91
2023-12-05T13:16:54.793Z,100235.81
2023-12-05T13:19:32.333Z,100240.13
2023-12-05T13:21:59.615Z,100235.59
2023-12-05T13:24:28.405Z,100234.53
2023-12-05T13:26:55.417Z,100237.97
2023-12-05T13:29:22.575Z,100231.00
2023-12-05T13:31:49.967Z,100236.31
2023-12-05T13:34:17.272Z,100230.84
2023-12-05T13:36:47.788Z,100227.53
2023-12-05T13:39:16.669Z,100226.13
2023-12-05T13:41:46.622Z,100220.22
2023-12-05T13:44:15.834Z,100220.22
2023-12-05T13:46:42.858Z,100218.63
2023-12-05T13:49:15.363Z,100222.13
2023-12-05T13:51:45.082Z,100218.72
2023-12-05T13:54:13.355Z,100208.66
2023-12-05T13:56:40.312Z,100219.06
2023-12-05T13:59:07.409Z,100218.16
2023-12-05T14:01:35.411Z,100214.72
2023-12-05T14:04:05.777Z,100217.22
2023-12-05T14:06:33.070Z,100217.09
2023-12-05T14:09:00.230Z,100223.72
2023-12-05T14:11:27.046Z,100227.94
2023-12-05T14:13:54.145Z,100229.66
2023-12-05T14:16:20.978Z,100220.22
2023-12-05T14:18:48.559Z,100235.09
2023-12-05T14:21:15.692Z,100230.03
2023-12-05T14:23:45.558Z,100237.88
2023-12-05T14:26:12.626Z,100233.44
2023-12-05T14:28:40.347Z,100231.53
2023-12-05T14:31:07.290Z,100233.41
2023-12-05T14:33:35.796Z,100233.47
2023-12-05T14:36:03.550Z,100236.97
2023-12-05T14:38:33.050Z,100238.00
2023-12-05T14:41:00.072Z,100242.34
2023-12-05T14:43:27.695Z,100244.94
2023-12-05T14:45:54.529Z,100236.34
2023-12-05T14:48:25.148Z,100243.31
2023-12-05T14:50:52.793Z,100248.50
2023-12-05T14:53:19.892Z,100245.63
2023-12-05T14:55:46.807Z,100248.13
2023-12-05T14:58:14.369Z,100254.28
2023-12-05T15:00:41.302Z,100252.50
2023-12-05T15:03:08.800Z,100253.44
2023-12-05T15:05:36.142Z,100242.34
2023-12-05T15:08:04.817Z,100250.13
2023-12-05T15:10:34.126Z,100253.53
2023-12-05T15:13:01.269Z,100249.06
2023-12-05T15:15:29.251Z,100246.47
2023-12-05T15:17:56.462Z,100248.09
2023-12-05T15:20:24.479Z,100251.59
2023-12-05T15:22:52.432Z,100252.50
2023-12-05T15:25:19.384Z,100251.66
2023-12-05T15:27:46.806Z,100249.16
2023-12-05T15:30:14.520Z,100255.25
2023-12-05T15:32:53.483Z,100251.69
2023-12-05T15:35:24.065Z,100252.59
2023-12-05T15:37:51.667Z,100254.25
2023-12-05T15:40:18.658Z,100256.91
2023-12-05T15:42:52.955Z,100249.03
2023-12-05T15:45:24.155Z,100257.78
2023-12-05T15:47:51.451Z,100250.00
2023-12-05T15:50:19.746Z,100248.38
2023-12-05T15:52:51.035Z,100251.78
2023-12-05T15:55:17.990Z,100247.41
2023-12-05T15:57:45.781Z,100250.94
2023-12-05T16:00:13.455Z,100240.41
2023-12-05T16:02:42.647Z,100243.19
2023-12-05T16:05:09.864Z,100245.75
2023-12-05T16:07:37.667Z,100251.72
2023-12-05T16:10:05.887Z,100247.53
2023-12-05T16:12:33.113Z,100251.81
2023-12-05T16:15:00.129Z,100252.72
2023-12-05T16:17:27.322Z,100249.41
2023-12-05T16:19:57.073Z,100253.69
2023-12-05T16:22:24.841Z,100253.75
2023-12-05T16:24:52.825Z,100248.50
2023-12-05T16:27:25.423Z,100246.03
2023-12-05T16:29:52.320Z,100247.03
2023-12-05T16:32:19.577Z,100251.38
2023-12-05T16:34:46.765Z,100252.41
2023-12-05T16:37:14.579Z,100255.88
2023-12-05T16:39:41.509Z,100253.28
2023-12-05T16:42:11.924Z,100252.41
2023-12-05T16:44:46.996Z,100254.13
2023-12-05T16:47:14.632Z,100247.97
2023-12-05T16:49:48.088Z,100241.00
2023-12-05T16:52:18.083Z,100243.53
2023-12-05T16:54:45.002Z,100240.97
2023-12-05T16:57:13.166Z,100244.50
2023-12-05T16:59:43.815Z,100240.19
2023-12-05T17:02:14.246Z,100243.63
2023-12-05T17:04:41.278Z,100246.06
2023-12-05T17:07:11.135Z,100246.03
2023-12-05T17:09:38.111Z,100252.13
2023-12-05T17:12:11.775Z,100248.69
2023-12-05T17:14:38.648Z,100250.28
2023-12-05T17:17:05.799Z,100247.63
2023-12-05T17:19:32.888Z,100248.44
2023-12-05T17:22:01.165Z,100254.59
2023-12-05T17:24:28.199Z,100252.03
2023-12-05T17:26:55.489Z,100252.94
2023-12-05T17:29:22.445Z,100251.19
2023-12-05T17:31:49.535Z,100246.72
2023-12-05T17:34:17.524Z,100245.09
2023-12-05T17:36:47.754Z,100242.47
2023-12-05T17:39:15.636Z,100237.28
2023-12-05T17:41:43.438Z,100236.38
2023-12-05T17:44:10.206Z,100242.25
2023-12-05T17:46:37.472Z,100235.41
2023-12-05T17:49:04.496Z,100234.38
2023-12-05T17:51:31.922Z,100237.81
2023-12-05T17:53:58.850Z,100235.09
2023-12-05T17:56:26.109Z,100248.22
2023-12-05T17:58:54.576Z,100236.09
2023-12-05T18:01:21.817Z,100235.22
2023-12-05T18:03:49.644Z,100243.00
2023-12-05T18:06:20.248Z,100245.38
2023-12-05T18:08:48.006Z,100247.06
2023-12-05T18:11:17.545Z,100249.66
2023-12-05T18:13:44.338Z,100244.56
2023-12-05T18:16:14.676Z,100247.31
2023-12-05T18:18:42.437Z,100224.81
2023-12-05T18:21:12.285Z,100242.84
2023-12-05T18:23:40.544Z,100229.88
2023-12-05T18:26:11.256Z,100234.34
2023-12-05T18:28:38.139Z,100242.84
2023-12-05T18:31:14.258Z,100238.56
2023-12-05T18:33:41.492Z,100243.78
2023-12-05T18:36:11.935Z,100247.19
2023-12-05T18:38:41.688Z,100241.03
2023-12-05T18:41:08.799Z,100235.78
2023-12-05T18:43:37.131Z,100233.28
2023-12-05T18:46:05.070Z,100230.75
2023-12-05T18:48:32.859Z,100230.75
2023-12-05T18:51:01.106Z,100231.59
2023-12-05T18:53:29.718Z,100228.16
2023-12-05T18:56:01.384Z,100237.78
2023-12-05T18:58:28.367Z,100236.09
2023-12-05T19:00:55.509Z,100243.97
2023-12-05T19:03:22.453Z,100245.66
2023-12-05T19:05:51.115Z,100242.25
2023-12-05T19:08:18.602Z,100229.16
2023-12-05T19:10:45.970Z,100231.69
2023-12-05T19:13:13.819Z,100224.88
2023-12-05T19:15:40.850Z,100220.53
2023-12-05T19:18:07.973Z,100219.50
2023-12-05T19:20:35.224Z,100217.81
2023-12-05T19:23:02.141Z,100227.31
2023-12-05T19:25:29.348Z,100224.75
2023-12-05T19:27:56.666Z,100223.22
2023-12-05T19:30:24.020Z,100223.13
2023-12-05T19:32:51.948Z,100226.63
2023-12-05T19:35:19.094Z,100228.47
2023-12-05T19:37:46.868Z,100234.44
2023-12-05T19:40:13.972Z,100232.81
2023-12-05T19:42:41.760Z,100232.84
2023-12-05T19:45:09.242Z,100234.47
2023-12-05T19:47:36.760Z,100236.94
2023-12-05T19:50:04.415Z,100232.69
2023-12-05T19:52:31.270Z,100221.56
2023-12-05T19:54:58.491Z,100224.25
2023-12-05T19:57:25.594Z,100232.81
2023-12-05T19:59:52.744Z,100233.66
2023-12-05T20:02:19.526Z,100234.47
2023-12-05T20:04:47.403Z,100243.09
2023-12-05T20:07:14.467Z,100238.94
2023-12-05T20:09:42.248Z,100237.28
2023-12-05T20:12:09.204Z,100239.78
2023-12-05T20:14:36.561Z,100245.97
2023-12-05T20:17:04.454Z,100244.25
2023-12-05T20:19:31.721Z,100251.28
2023-12-05T20:21:58.777Z,100242.59
2023-12-05T20:24:26.074Z,100234.84
2023-12-05T20:26:53.323Z,100238.28
2023-12-05T20:29:20.399Z,100236.50
2023-12-05T20:31:47.202Z,100239.13
2023-12-05T20:34:14.399Z,100237.41
2023-12-05T20:36:41.751Z,100239.91
2023-12-05T20:39:10.404Z,100233.00
2023-12-05T20:41:37.298Z,100231.22
2023-12-05T20:44:04.824Z,100235.59
2023-12-05T20:46:31.770Z,100241.75
2023-12-05T20:48:58.993Z,100232.25
2023-12-05T20:51:25.915Z,100237.31
2023-12-05T20:53:54.679Z,100235.66
2023-12-05T20:56:24.728Z,100240.81
2023-12-05T20:58:51.854Z,100240.72
2023-12-05T21:01:19.988Z,100236.38
2023-12-05T21:03:47.621Z,100243.41
2023-12-05T21:06:14.663Z,100244.22
2023-12-05T21:09:10.004Z,100250.38
2023-12-05T21:11:28.711Z,100250.47
2023-12-05T21:13:56.150Z,100253.88
2023-12-05T21:16:23.086Z,100254.78
2023-12-05T21:18:50.999Z,100251.31
2023-12-05T21:21:18.774Z,100239.31
2023-12-05T21:23:46.289Z,100247.81
2023-12-05T21:26:15.448Z,100250.38
2023-12-05T21:28:42.633Z,100249.41
2023-12-05T21:31:10.277Z,100255.56
2023-12-05T21:33:37.773Z,100253.00
2023-12-05T21:36:05.154Z,100248.63
2023-12-05T21:38:32.402Z,100256.28
2023-12-05T21:40:59.347Z,100253.81
2023-12-05T21:43:28.019Z,100255.72
2023-12-05T21:45:57.376Z,100256.50
2023-12-05T21:48:25.065Z,100270.25
2023-12-05T21:50:51.969Z,100272.94
2023-12-05T21:53:19.145Z,100278.06
2023-12-05T21:55:45.972Z,100271.25
2023-12-05T21:58:13.225Z,100259.91
2023-12-05T22:00:40.194Z,100266.72
2023-12-05T22:03:07.335Z,100276.22
2023-12-05T22:05:34.206Z,100269.22
2023-12-05T22:08:01.292Z,100271.84
2023-12-05T22:10:28.132Z,100262.25
2023-12-05T22:12:55.277Z,100253.50
2023-12-05T22:15:22.340Z,100246.69
2023-12-05T22:17:50.441Z,100259.69
2023-12-05T22:20:17.724Z,100259.69
2023-12-05T22:22:45.003Z,100255.38
2023-12-05T22:25:12.126Z,100256.41
2023-12-05T22:27:39.350Z,100254.63
2023-12-05T22:30:07.239Z,100256.41
2023-12-05T22:32:34.680Z,100250.22
2023-12-05T22:35:01.653Z,100250.25
2023-12-05T22:37:28.872Z,100249.44
2023-12-05T22:39:55.920Z,100251.16
2023-12-05T22:42:24.709Z,100257.22
2023-12-05T22:44:51.623Z,100252.97
2023-12-05T22:47:19.013Z,100251.31
2023-12-05T22:49:48.705Z,100261.72
2023-12-05T22:52:16.086Z,100255.72
2023-12-05T22:54:42.976Z,100245.66
2023-12-05T22:57:10.229Z,100246.41
2023-12-05T22:59:38.401Z,100246.44
2023-12-05T23:02:05.520Z,100251.38
2023-12-05T23:04:32.478Z,100242.91
2023-12-05T23:06:59.595Z,100241.16
2023-12-05T23:09:26.410Z,100240.28
2023-12-05T23:11:53.536Z,100235.94
2023-12-05T23:14:20.397Z,100238.44
2023-12-05T23:16:47.517Z,100241.06
2023-12-05T23:19:14.692Z,100239.31
2023-12-05T23:21:42.117Z,100235.00
2023-12-05T23:24:09.071Z,100235.72
2023-12-05T23:26:36.183Z,100228.22
2023-12-05T23:29:03.070Z,100233.78
2023-12-05T23:31:30.165Z,100230.38
2023-12-05T23:33:57.074Z,100234.63
2023-12-05T23:36:24.213Z,100229.28
2023-12-05T23:38:51.660Z,100230.31
2023-12-05T23:41:18.810Z,100236.25
2023-12-05T23:43:45.647Z,100230.94
2023-12-05T23:46:15.672Z,100222.59
2023-12-05T23:48:42.773Z,100226.84
2023-12-05T23:51:09.934Z,100231.06
2023-12-05T23:53:37.237Z,100226.78
2023-12-05T23:56:04.554Z,100233.50
2023-12-05T23:58:31.324Z,100217.13
